Time;durP1;ratioP1;P1;durP2;ratioP2;P2;SDS_P1;SDS_P2;PMS_P1;PMS_P2;Temp;Humidity;BMP_temperature;BMP_pressure;BME280_temperature;BME280_humidity;BME280_pressure;Samples;Min_cycle;Max_cycle;Signal;HPM_P1;HPM_P2
2022/05/13 00:02:10;;;;;;;10.10;7.70;;;19.80;99.90;;;;;;5054190;28;20177;-74
2022/05/13 00:04:36;;;;;;;9.07;8.27;;;19.70;99.90;;;;;;5053732;28;20174;-74
2022/05/13 00:07:03;;;;;;;8.77;7.73;;;19.70;99.90;;;;;;5054130;28;20840;-73
2022/05/13 00:12:13;;;;;;;9.27;8.37;;;19.50;99.90;;;;;;5053850;28;20389;-74
2022/05/13 00:14:40;;;;;;;7.83;7.23;;;19.50;99.90;;;;;;5053797;28;20783;-74
2022/05/13 00:17:06;;;;;;;9.57;7.80;;;19.60;99.90;;;;;;5053980;28;20427;-74
2022/05/13 00:19:32;;;;;;;7.20;6.50;;;19.50;99.90;;;;;;5053517;28;20983;-74
2022/05/13 00:21:58;;;;;;;8.67;7.87;;;19.50;99.90;;;;;;5053835;28;20440;-76
2022/05/13 00:24:23;;;;;;;7.60;6.90;;;19.50;99.90;;;;;;5053502;28;20493;-74
2022/05/13 00:26:49;;;;;;;8.33;7.47;;;19.50;99.90;;;;;;5053266;28;20409;-75
2022/05/13 00:29:15;;;;;;;8.50;7.70;;;19.50;99.90;;;;;;5053505;28;20603;-74
2022/05/13 00:31:42;;;;;;;7.40;6.73;;;19.50;99.90;;;;;;5053467;28;20171;-74
2022/05/13 00:34:08;;;;;;;8.03;7.33;;;19.60;99.90;;;;;;5053111;28;20412;-75
2022/05/13 00:36:34;;;;;;;10.10;9.10;;;19.40;99.90;;;;;;5053490;28;20787;-74
2022/05/13 00:39:04;;;;;;;9.30;8.37;;;19.40;99.90;;;;;;5053485;28;20440;-74
2022/05/13 00:41:34;;;;;;;10.37;8.13;;;19.30;99.90;;;;;;5052966;28;20397;-74
2022/05/13 00:44:00;;;;;;;7.97;7.33;;;19.40;99.90;;;;;;5053215;28;20411;-75
2022/05/13 00:46:28;;;;;;;10.93;8.60;;;19.40;99.90;;;;;;5053154;28;20897;-74
2022/05/13 00:49:40;;;;;;;8.90;8.00;;;19.30;99.90;;;;;;5053066;28;20423;-74
2022/05/13 00:52:10;;;;;;;8.80;8.10;;;19.30;99.90;;;;;;5053139;28;20401;-74
2022/05/13 00:54:39;;;;;;;8.67;7.10;;;19.30;99.90;;;;;;5053159;28;20420;-75
2022/05/13 00:57:05;;;;;;;9.17;8.27;;;19.30;99.90;;;;;;5052869;28;20775;-74
2022/05/13 00:59:35;;;;;;;8.40;7.70;;;19.30;99.90;;;;;;5053133;28;20476;-74
2022/05/13 01:02:00;;;;;;;8.30;7.60;;;19.40;99.90;;;;;;5053431;28;20891;-74
2022/05/13 01:04:28;;;;;;;7.60;6.90;;;19.60;99.90;;;;;;5052822;28;20448;-75
2022/05/13 01:06:58;;;;;;;8.17;7.50;;;19.60;99.90;;;;;;5052950;28;20607;-74
2022/05/13 01:09:28;;;;;;;8.70;7.90;;;19.60;99.90;;;;;;5053368;28;20512;-75
2022/05/13 01:11:57;;;;;;;8.03;6.90;;;19.60;99.90;;;;;;5052569;28;20409;-74
2022/05/13 01:14:34;;;;;;;8.43;7.63;;;19.50;99.90;;;;;;5052758;28;20811;-75
2022/05/13 01:20:17;;;;;;;8.13;7.43;;;19.40;99.90;;;;;;5052394;28;20610;-75
2022/05/13 01:22:46;;;;;;;8.70;8.00;;;19.50;99.90;;;;;;5053006;28;20420;-74
2022/05/13 01:25:15;;;;;;;8.23;7.63;;;19.60;99.90;;;;;;5034370;28;20859;-75
2022/05/13 01:27:43;;;;;;;10.63;8.33;;;19.70;99.90;;;;;;5052590;28;20406;-75
2022/05/13 01:30:11;;;;;;;8.63;7.93;;;19.60;99.90;;;;;;5052672;28;20429;-74
2022/05/13 01:32:37;;;;;;;8.67;7.87;;;19.50;99.90;;;;;;5052542;28;20425;-75
2022/05/13 01:35:03;;;;;;;9.40;8.50;;;19.60;99.90;;;;;;5052245;28;20467;-74
2022/05/13 01:37:29;;;;;;;9.20;8.27;;;19.60;99.90;;;;;;5052846;28;20541;-74
2022/05/13 01:39:55;;;;;;;10.17;9.20;;;19.70;99.90;;;;;;5052376;28;20452;-74
2022/05/13 01:42:21;;;;;;;13.10;10.30;;;19.60;99.90;;;;;;5052316;28;20220;-74
2022/05/13 01:44:46;;;;;;;9.27;7.87;;;19.50;99.90;;;;;;5052531;28;20538;-74
2022/05/13 01:47:12;;;;;;;8.47;7.67;;;19.40;99.90;;;;;;5052697;28;20216;-74
2022/05/13 01:49:37;;;;;;;9.77;8.77;;;19.50;99.90;;;;;;5056274;28;20198;-74
2022/05/13 01:52:03;;;;;;;10.87;9.87;;;19.40;99.90;;;;;;5056732;28;20178;-74
2022/05/13 01:54:29;;;;;;;10.03;9.03;;;19.40;99.90;;;;;;5056842;28;20174;-74
2022/05/13 01:56:54;;;;;;;9.53;8.40;;;19.50;99.90;;;;;;5036466;28;20167;-73
2022/05/13 01:59:20;;;;;;;10.63;9.63;;;19.40;99.90;;;;;;5036180;28;20222;-74
2022/05/13 02:01:45;;;;;;;9.27;8.40;;;19.40;99.90;;;;;;5036423;28;20156;-74
2022/05/13 02:04:11;;;;;;;10.00;9.00;;;19.50;99.90;;;;;;5039525;28;20631;-74
2022/05/13 02:06:36;;;;;;;9.03;8.20;;;19.50;99.90;;;;;;5056082;28;20208;-74
2022/05/13 02:09:03;;;;;;;9.93;9.03;;;19.30;99.90;;;;;;5056119;28;20175;-74
2022/05/13 02:11:31;;;;;;;10.47;9.10;;;19.30;99.90;;;;;;5055982;28;20185;-74
2022/05/13 02:13:58;;;;;;;8.93;8.13;;;19.20;99.90;;;;;;5056462;28;20431;-74
2022/05/13 02:16:24;;;;;;;11.47;10.27;;;19.20;99.90;;;;;;5038181;28;20413;-74
2022/05/13 02:18:50;;;;;;;11.50;10.20;;;19.00;99.90;;;;;;5056134;28;20452;-74
2022/05/13 02:21:17;;;;;;;13.00;11.60;;;18.90;99.90;;;;;;5055763;28;20544;-74
2022/05/13 02:23:43;;;;;;;11.37;8.40;;;18.80;99.90;;;;;;5056268;28;20958;-74
2022/05/13 02:26:11;;;;;;;9.77;8.77;;;18.70;99.90;;;;;;5037731;28;20504;-74
2022/05/13 02:28:38;;;;;;;8.10;7.30;;;18.70;99.90;;;;;;5056260;28;20255;-74
2022/05/13 02:31:05;;;;;;;16.63;8.53;;;18.60;99.90;;;;;;5055705;28;20432;-74
2022/05/13 02:33:31;;;;;;;9.27;8.37;;;18.70;99.90;;;;;;5056064;28;20515;-74
2022/05/13 02:35:59;;;;;;;8.17;7.13;;;18.70;99.90;;;;;;5037632;28;20421;-74
2022/05/13 02:38:26;;;;;;;7.90;7.20;;;18.80;99.90;;;;;;5037633;28;20437;-74
2022/05/13 02:43:53;;;;;;;8.80;6.93;;;18.90;99.90;;;;;;5011313;28;20501;-74
2022/05/13 02:46:32;;;;;;;7.83;7.10;;;19.00;99.90;;;;;;5055338;28;20412;-74
2022/05/13 02:48:58;;;;;;;8.57;7.77;;;19.10;99.90;;;;;;5055584;28;20493;-74
2022/05/13 02:51:24;;;;;;;9.13;7.73;;;19.20;99.90;;;;;;5059151;28;20460;-74
2022/05/13 02:53:50;;;;;;;9.63;7.67;;;19.20;99.90;;;;;;5066502;28;20462;-74
2022/05/13 02:56:16;;;;;;;7.97;7.17;;;19.10;99.90;;;;;;5074781;28;20538;-74
2022/05/13 02:58:42;;;;;;;9.03;7.70;;;19.10;99.90;;;;;;5075241;28;20452;-74
2022/05/13 03:01:09;;;;;;;10.40;8.30;;;19.10;99.90;;;;;;5067573;22;20845;-74
2022/05/13 03:03:38;;;;;;;7.90;7.10;;;18.90;99.90;;;;;;5034617;28;20687;-74
2022/05/13 03:06:04;;;;;;;10.10;7.70;;;18.80;99.90;;;;;;5034468;28;20426;-74
2022/05/13 03:08:30;;;;;;;9.60;6.17;;;18.70;99.90;;;;;;5035426;28;20440;-74
2022/05/13 03:10:56;;;;;;;8.93;7.60;;;18.60;99.90;;;;;;5033859;28;20278;-74
2022/05/13 03:13:21;;;;;;;9.70;6.93;;;18.50;99.90;;;;;;5035601;28;20168;-74
2022/05/13 03:15:48;;;;;;;9.90;7.20;;;18.50;99.90;;;;;;5035309;28;20247;-74
2022/05/13 03:18:14;;;;;;;8.47;7.67;;;18.40;99.90;;;;;;5035631;28;20168;-74
2022/05/13 03:20:40;;;;;;;12.50;5.60;;;18.30;99.90;;;;;;5034817;28;20510;-74
2022/05/13 03:23:05;;;;;;;8.23;7.10;;;18.40;99.90;;;;;;5035243;28;20406;-74
2022/05/13 03:25:31;;;;;;;10.50;7.00;;;18.30;99.90;;;;;;5017201;28;20421;-74
2022/05/13 03:27:57;;;;;;;10.40;8.53;;;18.30;99.90;;;;;;5035028;28;20163;-74
2022/05/13 03:30:25;;;;;;;8.67;7.33;;;18.20;99.90;;;;;;5035344;28;20942;-73
2022/05/13 03:32:52;;;;;;;12.23;7.80;;;18.20;99.90;;;;;;5039467;28;20663;-74
2022/05/13 03:35:18;;;;;;;10.10;7.07;;;18.30;99.90;;;;;;5016764;28;20511;-74
2022/05/13 03:37:44;;;;;;;7.53;6.10;;;18.40;99.90;;;;;;5035008;28;20410;-74
2022/05/13 03:40:12;;;;;;;6.53;5.93;;;18.40;99.90;;;;;;5033494;28;20464;-74
2022/05/13 03:42:38;;;;;;;11.43;8.90;;;18.40;99.90;;;;;;5035241;28;20167;-74
2022/05/13 03:45:06;;;;;;;8.10;6.80;;;18.30;99.90;;;;;;5035056;28;20406;-73
2022/05/13 03:47:31;;;;;;;9.97;8.50;;;18.30;99.90;;;;;;5034480;28;20409;-74
2022/05/13 03:49:57;;;;;;;7.87;7.17;;;18.30;99.90;;;;;;5034689;28;20418;-73
2022/05/13 03:52:23;;;;;;;9.53;8.53;;;18.40;99.90;;;;;;5034657;28;20218;-74
2022/05/13 03:54:49;;;;;;;8.70;7.70;;;18.20;99.90;;;;;;5034538;28;20406;-74
2022/05/13 03:57:14;;;;;;;7.17;6.47;;;18.20;99.90;;;;;;5034761;28;20171;-74
2022/05/13 03:59:40;;;;;;;9.33;8.53;;;18.20;99.90;;;;;;5034419;28;20203;-74
2022/05/13 04:02:06;;;;;;;13.70;7.07;;;18.20;99.90;;;;;;5034665;28;20160;-74
2022/05/13 04:08:56;;;;;;;8.20;7.40;;;18.00;99.90;;;;;;5033859;28;20376;-74
2022/05/13 04:10:05;;;;;;;9.20;6.73;;;17.90;99.90;;;;;;5034202;28;20456;-74
2022/05/13 04:17:58;;;;;;;9.40;7.83;;;18.10;99.90;;;;;;5033988;28;20388;-74
2022/05/13 04:20:24;;;;;;;8.33;7.10;;;18.00;99.90;;;;;;5033823;28;20541;-73
2022/05/13 04:22:49;;;;;;;7.10;6.30;;;17.90;99.90;;;;;;5034450;28;20171;-74
2022/05/13 04:25:15;;;;;;;8.57;7.10;;;17.80;99.90;;;;;;5030466;28;20552;-73
2022/05/13 04:27:41;;;;;;;8.50;7.20;;;17.90;99.90;;;;;;5032172;28;20258;-73
2022/05/13 04:30:07;;;;;;;7.70;7.00;;;17.80;99.90;;;;;;5013846;28;20199;-73
2022/05/13 04:32:33;;;;;;;9.50;8.60;;;17.90;99.90;;;;;;5031529;28;20183;-74
2022/05/13 04:34:58;;;;;;;11.17;8.40;;;17.70;99.90;;;;;;5016131;28;20406;-74
2022/05/13 04:37:25;;;;;;;9.90;7.90;;;17.70;99.90;;;;;;5032658;28;20171;-72
2022/05/13 04:39:53;;;;;;;10.43;7.70;;;17.80;99.90;;;;;;5033969;28;20267;-73
2022/05/13 04:45:05;;;;;;;10.13;7.47;;;18.00;99.90;;;;;;5035129;28;20490;-73
2022/05/13 04:50:15;;;;;;;8.50;7.27;;;18.00;99.90;;;;;;5034413;28;20475;-72
2022/05/13 04:52:55;;;;;;;13.53;7.47;;;18.10;99.90;;;;;;5033669;28;20895;-73
2022/05/13 04:55:21;;;;;;;8.43;7.63;;;18.10;99.90;;;;;;5035111;28;20168;-72
2022/05/13 04:57:46;;;;;;;7.13;6.17;;;18.20;99.90;;;;;;5015128;28;20954;-72
2022/05/13 05:00:13;;;;;;;9.93;8.10;;;18.10;99.90;;;;;;5032301;28;20229;-73
2022/05/13 05:02:38;;;;;;;7.53;6.83;;;18.10;99.90;;;;;;5015441;28;20258;-73
2022/05/13 05:05:04;;;;;;;7.97;6.93;;;18.20;99.90;;;;;;5033244;28;20460;-73
2022/05/13 05:07:30;;;;;;;7.93;6.67;;;18.30;99.90;;;;;;5033525;28;20175;-74
2022/05/13 05:09:56;;;;;;;7.63;7.00;;;18.40;99.90;;;;;;5033183;28;20426;-74
2022/05/13 05:12:21;;;;;;;7.37;6.67;;;18.30;99.90;;;;;;5031948;28;20258;-74
2022/05/13 05:14:47;;;;;;;10.07;6.50;;;18.30;99.90;;;;;;5031864;28;20190;-73
2022/05/13 05:17:12;;;;;;;7.07;6.37;;;18.20;99.90;;;;;;5033534;28;20719;-73
2022/05/13 05:19:38;;;;;;;7.57;6.87;;;18.00;99.90;;;;;;5032719;28;20277;-73
2022/05/13 05:22:05;;;;;;;8.57;6.67;;;18.00;99.90;;;;;;5032326;28;20644;-73
2022/05/13 05:24:31;;;;;;;7.40;5.93;;;18.00;99.90;;;;;;5031901;28;20406;-74
2022/05/13 05:26:57;;;;;;;8.20;6.97;;;17.90;99.90;;;;;;5032215;28;20504;-73
2022/05/13 05:29:23;;;;;;;7.10;6.50;;;17.90;99.90;;;;;;5032859;28;20406;-73
2022/05/13 05:31:49;;;;;;;9.07;6.53;;;18.00;99.90;;;;;;5032905;28;20667;-72
2022/05/13 05:34:16;;;;;;;8.33;7.60;;;18.10;99.90;;;;;;5032577;28;20403;-74
2022/05/13 05:36:42;;;;;;;7.47;6.57;;;18.10;99.90;;;;;;5032691;28;20594;-72
2022/05/13 05:39:08;;;;;;;7.70;6.60;;;18.00;99.90;;;;;;5032646;28;20481;-73
2022/05/13 05:41:34;;;;;;;6.60;6.00;;;18.10;99.90;;;;;;5032745;28;20318;-74
2022/05/13 05:43:59;;;;;;;9.30;6.93;;;18.20;99.90;;;;;;5032761;28;20163;-74
2022/05/13 05:46:25;;;;;;;8.20;6.30;;;18.30;99.90;;;;;;5033241;28;20770;-74
2022/05/13 05:48:51;;;;;;;7.90;6.70;;;18.20;99.90;;;;;;5032433;28;20245;-74
2022/05/13 05:51:16;;;;;;;9.40;6.20;;;18.40;99.90;;;;;;5033331;28;20274;-73
2022/05/13 05:59:11;;;;;;;9.87;7.63;;;18.10;99.90;;;;;;5031979;28;20457;-71
2022/05/13 06:01:36;;;;;;;8.70;6.80;;;18.00;99.90;;;;;;5032262;28;20417;-73
2022/05/13 06:04:02;;;;;;;6.90;6.00;;;18.00;99.90;;;;;;5014663;28;20182;-73
2022/05/13 06:06:28;;;;;;;7.00;6.30;;;18.00;99.90;;;;;;5033078;28;20164;-73
2022/05/13 06:08:55;;;;;;;7.70;6.30;;;18.00;99.90;;;;;;5032135;28;20471;-73
2022/05/13 06:11:24;;;;;;;6.10;5.43;;;18.10;99.90;;;;;;5032966;28;20509;-72
2022/05/13 06:13:54;;;;;;;7.40;6.70;;;18.20;99.90;;;;;;5032618;28;20471;-73
2022/05/13 06:16:22;;;;;;;8.47;6.23;;;18.20;99.90;;;;;;5032739;28;20847;-72
2022/05/13 06:18:49;;;;;;;7.27;6.13;;;18.10;99.90;;;;;;5032362;28;20511;-73
2022/05/13 06:21:14;;;;;;;10.27;6.00;;;18.00;99.90;;;;;;5015212;28;20434;-72
2022/05/13 06:23:40;;;;;;;9.23;6.20;;;18.00;99.90;;;;;;5032855;28;20931;-73
2022/05/13 06:26:06;;;;;;;7.57;6.87;;;18.10;99.90;;;;;;5023545;28;20233;-73
2022/05/13 06:28:32;;;;;;;7.67;5.30;;;18.00;99.90;;;;;;5032251;28;20718;-72
2022/05/13 06:30:57;;;;;;;6.80;6.13;;;18.10;99.90;;;;;;5032159;28;20192;-72
2022/05/13 06:33:23;;;;;;;9.53;6.00;;;18.20;99.90;;;;;;5032387;28;20695;-72
2022/05/13 06:35:49;;;;;;;8.50;6.10;;;18.20;99.90;;;;;;5036021;28;20163;-73
2022/05/13 06:38:20;;;;;;;8.53;5.63;;;18.20;99.90;;;;;;5035815;28;20190;-74
2022/05/13 06:40:47;;;;;;;7.80;5.73;;;18.40;99.90;;;;;;5035892;28;20203;-72
2022/05/13 06:43:13;;;;;;;8.57;5.57;;;18.50;99.90;;;;;;5018596;28;20417;-73
2022/05/13 06:45:38;;;;;;;9.80;7.63;;;18.60;99.90;;;;;;5035935;28;20437;-73
2022/05/13 06:48:05;;;;;;;7.73;5.57;;;18.60;99.90;;;;;;5035970;28;20666;-72
2022/05/13 06:50:32;;;;;;;7.87;5.50;;;18.80;99.90;;;;;;5035555;28;20581;-73
2022/05/13 06:52:57;;;;;;;7.57;5.30;;;18.80;99.90;;;;;;5035584;28;20409;-72
2022/05/13 06:55:23;;;;;;;8.07;5.40;;;18.80;99.90;;;;;;5036119;28;20414;-72
2022/05/13 06:57:49;;;;;;;7.83;4.90;;;18.80;99.90;;;;;;5018229;28;20186;-73
2022/05/13 07:00:16;;;;;;;8.67;6.10;;;19.00;99.90;;;;;;5035686;28;20836;-72
2022/05/13 07:02:42;;;;;;;7.40;5.20;;;19.20;99.90;;;;;;5036023;28;20813;-72
2022/05/13 07:05:10;;;;;;;5.70;5.03;;;19.20;99.90;;;;;;5035887;28;20445;-72
2022/05/13 07:07:37;;;;;;;9.10;6.50;;;19.40;99.90;;;;;;5035737;28;20410;-73
2022/05/13 07:10:04;;;;;;;6.67;4.90;;;19.50;99.90;;;;;;5036025;28;20492;-72
2022/05/13 07:12:29;;;;;;;9.80;5.10;;;19.80;99.90;;;;;;5018357;28;20418;-73
2022/05/13 07:14:56;;;;;;;7.40;4.80;;;19.70;99.90;;;;;;5035754;28;20517;-72
2022/05/13 07:17:22;;;;;;;6.70;5.27;;;19.50;99.90;;;;;;5035516;28;20668;-72
2022/05/13 07:19:48;;;;;;;8.33;5.40;;;19.50;99.90;;;;;;5017436;28;20462;-73
2022/05/13 07:22:13;;;;;;;6.40;4.80;;;19.30;99.90;;;;;;5035674;28;20428;-73
2022/05/13 07:24:39;;;;;;;6.50;5.30;;;19.10;99.90;;;;;;5035453;28;20632;-72
2022/05/13 07:27:05;;;;;;;7.00;6.20;;;19.10;99.90;;;;;;5035610;28;20261;-72
2022/05/13 07:29:32;;;;;;;10.90;5.37;;;19.30;99.90;;;;;;5036477;28;20199;-71
2022/05/13 07:31:57;;;;;;;8.60;5.50;;;19.20;99.90;;;;;;5036629;28;20406;-73
2022/05/13 07:34:23;;;;;;;6.23;4.70;;;19.00;99.90;;;;;;5035671;28;20425;-73
2022/05/13 07:36:53;;;;;;;9.00;5.10;;;19.10;99.90;;;;;;5035219;28;20175;-72
2022/05/13 07:42:04;;;;;;;8.30;4.43;;;19.00;99.90;;;;;;5035450;28;20436;-72
2022/05/13 07:44:30;;;;;;;8.47;5.77;;;19.20;99.90;;;;;;5035578;28;20410;-73
2022/05/13 07:46:56;;;;;;;8.50;5.40;;;19.10;99.90;;;;;;5034530;28;20903;-71
2022/05/13 07:49:21;;;;;;;7.67;5.40;;;18.90;99.90;;;;;;5035029;28;20186;-73
2022/05/13 07:51:47;;;;;;;5.60;4.73;;;19.00;99.90;;;;;;5035486;28;20168;-73
2022/05/13 07:54:13;;;;;;;5.03;4.13;;;19.00;99.90;;;;;;5034869;28;20178;-72
2022/05/13 07:56:38;;;;;;;6.57;4.13;;;18.80;99.90;;;;;;5034416;28;20179;-73
2022/05/13 07:59:04;;;;;;;7.33;3.93;;;18.90;99.90;;;;;;5035266;28;20539;-72
2022/05/13 08:01:30;;;;;;;7.07;4.03;;;19.10;99.90;;;;;;5034997;28;20199;-72
2022/05/13 08:03:56;;;;;;;4.47;3.13;;;19.00;99.90;;;;;;5035586;28;20613;-72
2022/05/13 08:06:22;;;;;;;10.03;3.67;;;19.10;99.90;;;;;;5035094;28;20409;-73
2022/05/13 08:08:53;;;;;;;6.10;3.43;;;19.20;99.90;;;;;;5034425;28;20643;-71
2022/05/13 08:11:19;;;;;;;7.47;3.50;;;19.60;99.90;;;;;;5035238;28;20802;-72
2022/05/13 08:13:45;;;;;;;5.80;3.50;;;19.60;99.90;;;;;;5034735;28;20402;-73
2022/05/13 08:16:15;;;;;;;7.80;3.60;;;19.90;99.90;;;;;;5035073;28;20821;-72
2022/05/13 08:18:42;;;;;;;6.43;3.47;;;20.10;99.90;;;;;;5034852;28;20163;-72
2022/05/13 08:21:08;;;;;;;6.07;3.97;;;20.10;99.90;;;;;;5034209;28;20429;-72
2022/05/13 08:23:35;;;;;;;7.17;4.10;;;20.20;99.90;;;;;;5033854;28;20434;-72
2022/05/13 08:26:01;;;;;;;4.07;3.50;;;20.50;99.90;;;;;;5034182;28;20414;-72
2022/05/13 08:28:27;;;;;;;6.37;3.77;;;20.70;99.90;;;;;;5034416;28;20862;-72
2022/05/13 08:30:53;;;;;;;5.73;3.60;;;21.00;99.90;;;;;;5034055;28;20520;-72
2022/05/13 08:33:19;;;;;;;7.03;3.90;;;20.70;99.90;;;;;;5034828;28;20167;-72
2022/05/13 08:35:47;;;;;;;6.50;4.60;;;20.50;99.90;;;;;;5034792;28;20172;-72
2022/05/13 08:38:15;;;;;;;11.33;4.40;;;20.70;99.90;;;;;;5034064;28;20418;-72
2022/05/13 08:40:58;;;;;;;8.87;3.90;;;20.50;99.90;;;;;;5034219;28;20460;-72
2022/05/13 08:43:36;;;;;;;5.97;4.00;;;20.30;99.90;;;;;;5034690;28;20469;-72
2022/05/13 08:46:19;;;;;;;7.40;4.33;;;20.20;99.90;;;;;;5034426;28;20464;-72
2022/05/13 08:48:51;;;;;;;9.33;3.33;;;20.50;99.90;;;;;;5016380;28;20405;-72
2022/05/13 08:51:45;;;;;;;7.13;3.80;;;20.80;99.90;;;;;;5034026;28;20508;-72
2022/05/13 08:54:17;;;;;;;9.07;3.23;;;20.80;99.90;;;;;;5026053;28;20418;-71
2022/05/13 08:56:48;;;;;;;6.00;3.27;;;20.70;99.90;;;;;;5033659;28;20433;-73
2022/05/13 08:59:22;;;;;;;8.93;3.77;;;20.70;99.90;;;;;;5033323;28;20930;-74
2022/05/13 09:02:01;;;;;;;6.40;3.57;;;21.10;99.90;;;;;;5074786;22;20955;-73
2022/05/13 09:04:45;;;;;;;7.20;4.20;;;21.00;99.90;;;;;;5072577;28;20900;-74
2022/05/13 09:07:18;;;;;;;8.57;4.10;;;21.00;99.90;;;;;;5072011;28;20466;-74
2022/05/13 09:09:47;;;;;;;6.30;3.23;;;20.90;99.90;;;;;;5071901;28;20400;-73
2022/05/13 09:12:19;;;;;;;7.37;3.30;;;21.00;99.90;;;;;;5072801;28;20400;-74
2022/05/13 09:15:06;;;;;;;8.13;3.50;;;20.90;99.90;;;;;;5072774;28;20749;-73
2022/05/13 09:17:36;;;;;;;4.93;3.13;;;20.80;99.90;;;;;;5073001;28;20416;-73
2022/05/13 09:20:12;;;;;;;5.63;3.13;;;20.80;99.90;;;;;;5073234;28;20476;-74
2022/05/13 09:22:52;;;;;;;4.30;2.90;;;20.70;99.90;;;;;;5055636;28;20893;-74
2022/05/13 09:25:42;;;;;;;4.70;2.73;;;20.70;99.90;;;;;;5072612;28;20755;-73
2022/05/13 09:28:12;;;;;;;9.60;3.50;;;20.70;99.90;;;;;;5073033;28;20396;-74
2022/05/13 09:30:41;;;;;;;6.93;2.97;;;20.80;99.90;;;;;;5071857;28;20420;-74
2022/05/13 09:33:39;;;;;;;9.90;3.10;;;21.10;99.90;;;;;;5072687;28;20403;-74
2022/05/13 09:36:29;;;;;;;8.77;3.33;;;21.10;99.90;;;;;;5072579;28;20388;-74
2022/05/13 09:39:15;;;;;;;6.43;3.43;;;21.30;99.90;;;;;;5072471;28;20432;-74
2022/05/13 09:41:40;;;;;;;4.70;2.73;;;21.70;99.90;;;;;;5072438;28;20506;-73
2022/05/13 09:44:19;;;;;;;5.47;2.67;;;22.20;99.90;;;;;;5073022;28;21007;-74
2022/05/13 09:46:50;;;;;;;4.87;2.30;;;22.30;99.90;;;;;;5072209;28;20142;-74
2022/05/13 09:49:36;;;;;;;6.47;2.83;;;22.30;99.90;;;;;;5054171;28;20405;-74
2022/05/13 09:52:14;;;;;;;7.00;3.17;;;22.10;99.90;;;;;;5072098;28;20424;-73
2022/05/13 09:54:42;;;;;;;4.53;2.90;;;21.80;99.90;;;;;;5054309;28;20444;-73
2022/05/13 09:57:12;;;;;;;7.13;2.83;;;21.80;99.90;;;;;;5072100;28;20495;-74
2022/05/13 09:59:45;;;;;;;5.03;3.17;;;22.00;99.90;;;;;;5072587;28;20451;-74
2022/05/13 10:02:27;;;;;;;6.20;3.37;;;22.20;99.90;;;;;;5052517;28;20467;-74
2022/05/13 10:05:10;;;;;;;36.40;3.03;;;22.20;99.90;;;;;;5052301;28;20480;-74
2022/05/13 10:07:45;;;;;;;5.33;3.07;;;21.50;99.90;;;;;;5063787;28;20446;-74
2022/05/13 10:16:07;;;;;;;4.67;2.93;;;21.10;99.90;;;;;;5076350;28;20526;-74
2022/05/13 10:18:38;;;;;;;3.90;2.50;;;21.20;99.90;;;;;;5076638;28;20404;-74
2022/05/13 10:21:09;;;;;;;6.30;3.70;;;21.10;99.90;;;;;;5075928;28;20463;-74
2022/05/13 10:23:54;;;;;;;7.07;3.17;;;21.30;99.90;;;;;;5075660;28;20449;-74
2022/05/13 10:26:29;;;;;;;4.47;3.13;;;21.50;99.90;;;;;;5076121;28;20393;-74
2022/05/13 10:29:09;;;;;;;4.50;2.60;;;21.70;99.90;;;;;;5076059;28;20395;-74
2022/05/13 10:31:40;;;;;;;6.23;3.80;;;21.70;99.90;;;;;;5076065;28;20435;-74
2022/05/13 10:34:21;;;;;;;3.50;2.60;;;21.40;99.90;;;;;;5076024;28;20869;-74
2022/05/13 10:37:19;;;;;;;3.93;2.50;;;21.40;99.90;;;;;;5057851;28;20416;-74
2022/05/13 10:40:16;;;;;;;6.17;2.97;;;21.60;99.90;;;;;;5075412;28;20593;-74
2022/05/13 10:43:08;;;;;;;3.10;2.60;;;21.50;99.90;;;;;;5059529;28;20465;-73
2022/05/13 10:45:35;;;;;;;5.40;2.57;;;21.80;99.90;;;;;;5060982;28;20436;-73
2022/05/13 10:48:05;;;;;;;3.07;2.77;;;21.80;99.90;;;;;;5075550;28;20447;-73
2022/05/13 10:50:38;;;;;;;7.17;3.30;;;21.80;99.90;;;;;;5075850;28;20420;-74
2022/05/13 10:53:16;;;;;;;4.27;2.90;;;21.50;99.90;;;;;;5057228;28;20764;-73
2022/05/13 10:55:57;;;;;;;4.40;3.37;;;21.30;99.90;;;;;;5057504;28;20499;-75
2022/05/13 10:58:56;;;;;;;6.57;3.37;;;21.50;99.90;;;;;;5075928;28;20385;-73
2022/05/13 11:01:56;;;;;;;4.00;3.50;;;21.30;99.90;;;;;;5075141;28;20440;-74
2022/05/13 11:04:45;;;;;;;4.57;3.87;;;21.50;99.90;;;;;;5058330;28;20400;-73
2022/05/13 11:07:14;;;;;;;9.67;3.97;;;21.50;99.90;;;;;;5075241;28;20497;-74
2022/05/13 11:09:39;;;;;;;5.03;3.20;;;21.40;99.90;;;;;;5074691;28;20404;-74
2022/05/13 11:12:33;;;;;;;5.13;3.10;;;21.60;99.90;;;;;;5056862;28;20424;-73
2022/05/13 11:15:11;;;;;;;4.93;3.40;;;21.60;99.90;;;;;;5064152;28;20213;-74
2022/05/13 11:18:01;;;;;;;7.27;3.23;;;21.30;99.90;;;;;;5074911;28;20773;-74
2022/05/13 11:20:45;;;;;;;6.50;3.40;;;21.40;99.90;;;;;;5073599;28;20956;-74
2022/05/13 11:26:54;;;;;;;6.57;3.90;;;22.10;99.90;;;;;;5075127;28;20373;-73
2022/05/13 11:29:45;;;;;;;5.97;4.00;;;22.70;99.90;;;;;;5074971;28;20381;-73
2022/05/13 11:32:16;;;;;;;5.83;3.33;;;22.50;99.90;;;;;;5074713;28;20406;-73
2022/05/13 11:34:47;;;;;;;3.40;3.10;;;22.20;99.90;;;;;;5074767;28;20409;-73
2022/05/13 11:37:15;;;;;;;3.43;2.93;;;22.50;99.90;;;;;;5074924;28;20416;-74
2022/05/13 11:39:46;;;;;;;5.20;3.27;;;22.60;99.90;;;;;;5074060;28;20505;-74
2022/05/13 11:42:31;;;;;;;4.90;3.57;;;22.60;99.90;;;;;;5074833;28;20404;-74
2022/05/13 11:45:24;;;;;;;4.17;3.73;;;22.50;99.90;;;;;;5074818;28;20389;-74
2022/05/13 11:48:15;;;;;;;8.70;4.00;;;22.70;99.90;;;;;;5056491;28;20790;-73
2022/05/13 11:50:41;;;;;;;5.90;3.10;;;22.20;99.90;;;;;;5073600;28;20940;-74
2022/05/13 11:53:07;;;;;;;4.23;2.73;;;22.50;99.90;;;;;;5051824;28;20413;-73
2022/05/13 11:55:39;;;;;;;3.80;2.73;;;23.10;99.90;;;;;;5043069;28;20783;-74
2022/05/13 11:58:06;;;;;;;9.37;3.53;;;23.60;99.10;;;;;;5054356;28;20174;-74
2022/05/13 12:00:35;;;;;;;3.53;2.80;;;24.40;98.20;;;;;;5054179;28;20465;-74
2022/05/13 12:03:03;;;;;;;4.70;3.10;;;24.20;97.40;;;;;;5054203;28;20929;-74
2022/05/13 12:05:31;;;;;;;3.80;3.03;;;24.00;97.70;;;;;;5036078;28;20405;-73
2022/05/13 12:08:15;;;;;;;8.20;3.17;;;23.90;97.90;;;;;;5053625;28;20445;-73
2022/05/13 12:10:59;;;;;;;5.90;2.90;;;24.40;97.90;;;;;;5054088;28;20441;-74
2022/05/13 12:13:43;;;;;;;4.00;3.10;;;25.10;96.90;;;;;;5054249;28;20385;-74
2022/05/13 12:16:32;;;;;;;4.90;3.27;;;25.60;95.50;;;;;;5053957;28;20873;-72
2022/05/13 12:19:31;;;;;;;4.47;3.20;;;25.80;95.60;;;;;;5054391;28;20480;-73
2022/05/13 12:22:12;;;;;;;7.70;3.87;;;25.80;95.20;;;;;;5035909;28;20433;-73
2022/05/13 12:25:02;;;;;;;4.57;2.67;;;25.40;95.30;;;;;;5053536;28;20389;-73
2022/05/13 12:28:01;;;;;;;6.77;3.37;;;26.40;95.10;;;;;;5053840;28;20382;-73
2022/05/13 12:30:30;;;;;;;7.30;3.53;;;27.60;94.20;;;;;;5053748;28;20425;-74
2022/05/13 12:33:00;;;;;;;5.90;3.10;;;26.90;92.60;;;;;;5053161;28;20535;-73
2022/05/13 12:38:24;;;;;;;3.90;2.87;;;26.80;92.80;;;;;;5070287;28;20403;-73
2022/05/13 12:41:16;;;;;;;4.90;3.40;;;28.50;91.00;;;;;;5073620;28;20531;-73
2022/05/13 12:43:51;;;;;;;4.00;3.20;;;27.90;89.10;;;;;;5073697;28;20217;-75
2022/05/13 12:46:19;;;;;;;6.30;3.10;;;28.60;87.90;;;;;;5073939;28;20391;-74
2022/05/13 12:49:04;;;;;;;4.40;2.87;;;29.60;85.60;;;;;;5073771;28;20396;-74
2022/05/13 12:51:55;;;;;;;5.73;3.17;;;30.00;81.50;;;;;;5073664;28;20408;-75
2022/05/13 12:54:24;;;;;;;5.07;2.70;;;29.10;81.40;;;;;;5031842;28;20459;-74
2022/05/13 12:56:55;;;;;;;3.93;2.90;;;28.10;85.30;;;;;;5073302;28;20897;-74
2022/05/13 12:59:28;;;;;;;3.93;2.93;;;27.50;86.50;;;;;;5073526;28;20440;-74
2022/05/13 13:02:00;;;;;;;4.90;3.20;;;26.50;87.50;;;;;;5064608;28;20473;-74
2022/05/13 13:04:32;;;;;;;3.80;2.70;;;26.10;89.80;;;;;;5041642;28;20405;-74
2022/05/13 13:07:10;;;;;;;5.50;3.60;;;25.70;90.70;;;;;;5053090;28;20415;-74
2022/05/13 13:09:45;;;;;;;4.47;3.00;;;25.10;91.40;;;;;;5052762;28;20456;-73
2022/05/13 13:12:23;;;;;;;4.40;2.77;;;25.30;91.80;;;;;;5053025;28;20462;-74
2022/05/13 13:15:03;;;;;;;4.70;2.87;;;26.70;90.40;;;;;;5053096;28;20849;-73
2022/05/13 13:18:07;;;;;;;5.50;2.60;;;27.40;87.60;;;;;;5052833;28;20757;-74
2022/05/13 13:20:49;;;;;;;3.87;2.67;;;29.30;86.10;;;;;;5018824;28;20468;-74
2022/05/13 13:23:16;;;;;;;5.60;2.60;;;28.10;83.60;;;;;;5052657;28;20393;-74
2022/05/13 13:25:44;;;;;;;4.17;2.80;;;27.80;84.30;;;;;;5052790;28;20413;-74
2022/05/13 13:28:25;;;;;;;4.37;2.37;;;29.10;80.20;;;;;;5053042;28;20421;-74
2022/05/13 13:31:02;;;;;;;3.80;2.10;;;30.60;74.70;;;;;;5052664;28;20512;-73
2022/05/13 13:33:31;;;;;;;3.77;2.83;;;31.80;71.30;;;;;;5053007;28;20381;-73
2022/05/13 13:36:12;;;;;;;3.60;2.40;;;32.80;66.50;;;;;;5053056;28;20409;-74
2022/05/13 13:38:39;;;;;;;4.00;2.60;;;33.30;67.40;;;;;;5071234;28;20749;-73
2022/05/13 13:41:05;;;;;;;3.10;2.10;;;32.20;61.20;;;;;;5072496;28;20524;-73
2022/05/13 13:43:34;;;;;;;2.80;2.40;;;32.60;61.40;;;;;;5073156;28;20401;-74
2022/05/13 13:46:10;;;;;;;3.20;2.47;;;32.80;62.50;;;;;;5073710;28;20404;-76
2022/05/13 13:48:43;;;;;;;6.67;2.43;;;32.40;59.90;;;;;;5056613;28;20432;-74